createdAt,value
2023-03-07T00:01:51.204Z,1.00
2023-03-07T00:06:55.682Z,0.90
2023-03-07T00:11:57.652Z,0.70
2023-03-07T00:16:59.715Z,1.00
2023-03-07T00:22:01.726Z,0.70
2023-03-07T00:27:04.187Z,1.00
2023-03-07T00:32:06.496Z,0.63
2023-03-07T00:37:08.731Z,0.75
2023-03-07T00:42:10.796Z,0.82
2023-03-07T00:47:12.862Z,0.85
2023-03-07T00:52:15.254Z,1.17
2023-03-07T00:57:17.413Z,0.65
2023-03-07T01:02:21.062Z,0.82
2023-03-07T01:07:23.089Z,1.00
2023-03-07T01:12:25.220Z,1.13
2023-03-07T01:17:27.418Z,0.80
2023-03-07T01:22:31.699Z,1.15
2023-03-07T01:27:33.942Z,1.02
2023-03-07T01:32:36.211Z,0.55
2023-03-07T01:37:38.316Z,0.60
2023-03-07T01:42:42.575Z,0.60
2023-03-07T01:47:44.974Z,1.05
2023-03-07T01:52:52.566Z,1.17
2023-03-07T01:57:56.911Z,1.10
2023-03-07T02:03:05.034Z,1.05
2023-03-07T02:08:12.012Z,1.27
2023-03-07T02:13:14.421Z,0.70
2023-03-07T02:18:21.333Z,0.80
2023-03-07T02:23:35.140Z,0.50
2023-03-07T02:28:40.053Z,1.30
2023-03-07T02:33:43.014Z,0.90
2023-03-07T02:38:49.015Z,0.77
2023-03-07T02:43:52.042Z,0.70
2023-03-07T02:48:54.104Z,1.20
2023-03-07T02:53:56.730Z,1.05
2023-03-07T02:58:58.899Z,1.10
2023-03-07T03:04:01.066Z,1.27
2023-03-07T03:09:03.530Z,1.17
2023-03-07T03:14:05.692Z,1.50
2023-03-07T03:19:07.949Z,0.90
2023-03-07T03:24:10.756Z,1.27
2023-03-07T03:29:13.536Z,1.25
2023-03-07T03:34:15.698Z,1.17
2023-03-07T03:39:18.273Z,1.00
2023-03-07T03:44:24.875Z,1.00
2023-03-07T03:49:27.530Z,1.27
2023-03-07T03:54:31.155Z,0.95
2023-03-07T03:59:33.604Z,1.52
2023-03-07T04:04:36.229Z,1.42
2023-03-07T04:09:38.322Z,1.60
2023-03-07T04:14:41.229Z,1.60
2023-03-07T04:19:43.545Z,1.92
2023-03-07T04:24:45.654Z,1.65
2023-03-07T04:29:48.063Z,1.85
2023-03-07T04:34:56.362Z,1.25
2023-03-07T04:39:58.544Z,1.90
2023-03-07T04:45:01.251Z,1.73
2023-03-07T04:50:06.283Z,1.85
2023-03-07T04:55:10.825Z,1.48
2023-03-07T05:00:14.956Z,2.58
2023-03-07T05:05:17.825Z,2.10
2023-03-07T05:10:20.172Z,2.08
2023-03-07T05:15:22.728Z,2.45
2023-03-07T05:20:25.007Z,1.83
2023-03-07T05:25:27.497Z,2.33
2023-03-07T05:30:30.102Z,2.00
2023-03-07T05:35:32.760Z,2.08
2023-03-07T05:40:37.110Z,2.08
2023-03-07T05:45:40.206Z,2.25
2023-03-07T05:50:42.856Z,2.60
2023-03-07T05:55:45.743Z,2.42
2023-03-07T06:00:49.853Z,2.03
2023-03-07T06:05:53.615Z,4.18
2023-03-07T06:10:55.976Z,2.60
2023-03-07T06:15:59.347Z,2.55
2023-03-07T06:21:04.264Z,2.42
2023-03-07T06:26:12.589Z,2.30
2023-03-07T06:31:17.853Z,2.10
2023-03-07T06:36:21.164Z,2.47
2023-03-07T06:41:29.792Z,2.40
2023-03-07T06:46:34.091Z,2.40
2023-03-07T06:51:41.270Z,2.47
2023-03-07T06:56:45.507Z,2.40
2023-03-07T07:01:51.682Z,2.75
2023-03-07T07:06:55.466Z,2.92
2023-03-07T07:11:57.670Z,2.75
2023-03-07T07:17:00.350Z,2.97
2023-03-07T07:22:03.420Z,2.83
2023-03-07T07:27:06.333Z,3.67
2023-03-07T07:32:09.422Z,3.33
2023-03-07T07:37:12.053Z,3.50
2023-03-07T07:42:14.253Z,3.63
2023-03-07T07:47:29.626Z,4.25
2023-03-07T07:52:31.736Z,3.92
2023-03-07T07:57:33.978Z,4.70
2023-03-07T08:02:36.813Z,2.80
2023-03-07T08:07:38.941Z,3.75
2023-03-07T08:12:40.959Z,5.32
2023-03-07T08:17:44.324Z,4.55
2023-03-07T08:22:49.225Z,4.25
2023-03-07T08:27:55.144Z,4.35
2023-03-07T08:32:57.431Z,4.10
2023-03-07T08:38:00.775Z,4.80
2023-03-07T08:43:02.922Z,4.30
2023-03-07T08:48:05.039Z,4.38
2023-03-07T08:53:07.104Z,4.38
2023-03-07T08:58:09.736Z,4.30
2023-03-07T09:03:11.906Z,4.68
2023-03-07T09:08:14.117Z,4.82
2023-03-07T09:13:18.578Z,4.03
2023-03-07T09:18:22.893Z,4.82
2023-03-07T09:23:25.989Z,4.50
2023-03-07T09:28:28.407Z,4.97
2023-03-07T09:33:30.508Z,4.32
2023-03-07T09:38:32.562Z,5.57
2023-03-07T09:44:13.490Z,5.03
2023-03-07T09:49:52.381Z,4.15
2023-03-07T09:55:01.439Z,3.97
2023-03-07T10:00:07.461Z,4.03
2023-03-07T10:05:35.480Z,4.30
2023-03-07T10:10:42.031Z,4.72
2023-03-07T10:16:02.416Z,3.90
2023-03-07T10:21:24.749Z,4.03
2023-03-07T10:27:01.209Z,4.25
2023-03-07T10:32:32.405Z,4.35
2023-03-07T10:38:21.757Z,4.10
2023-03-07T10:43:27.332Z,4.30
2023-03-07T10:48:31.773Z,4.72
2023-03-07T10:53:37.677Z,4.95
2023-03-07T10:58:41.514Z,5.00
2023-03-07T11:04:13.689Z,4.30
2023-03-07T11:14:22.053Z,3.90
2023-03-07T11:19:45.127Z,3.55
2023-03-07T11:24:54.414Z,4.20
2023-03-07T11:30:23.341Z,4.72
2023-03-07T11:35:46.183Z,3.88
2023-03-07T11:41:06.485Z,3.95
2023-03-07T11:46:20.806Z,3.60
2023-03-07T11:51:44.041Z,3.75
2023-03-07T11:56:52.264Z,3.53
2023-03-07T12:02:12.830Z,3.45
2023-03-07T12:07:32.418Z,3.40
2023-03-07T12:12:42.314Z,3.50
2023-03-07T12:17:56.171Z,3.40
2023-03-07T12:23:19.400Z,3.67
2023-03-07T12:28:24.881Z,3.17
2023-03-07T12:33:35.138Z,3.40
2023-03-07T12:38:43.348Z,3.45
2023-03-07T12:43:51.513Z,3.55
2023-03-07T12:49:02.009Z,3.60
2023-03-07T12:54:18.877Z,3.40
2023-03-07T12:59:22.092Z,3.03
2023-03-07T13:04:38.838Z,3.08
2023-03-07T13:09:44.021Z,3.42
2023-03-07T13:14:48.316Z,3.30
2023-03-07T13:19:57.730Z,5.10
2023-03-07T13:25:20.161Z,3.15
2023-03-07T13:30:26.722Z,3.80
2023-03-07T13:35:32.749Z,3.00
2023-03-07T13:40:47.191Z,3.00
2023-03-07T13:45:56.967Z,3.58
2023-03-07T13:50:59.118Z,3.47
2023-03-07T13:56:09.350Z,3.22
2023-03-07T14:01:18.617Z,2.85
2023-03-07T14:06:32.419Z,2.50
2023-03-07T14:11:58.735Z,2.72
2023-03-07T14:17:17.984Z,2.65
2023-03-07T14:22:42.213Z,2.75
2023-03-07T14:27:58.799Z,2.95
2023-03-07T14:33:01.779Z,2.85
2023-03-07T14:38:08.213Z,1.95
2023-03-07T14:43:10.498Z,2.78
2023-03-07T14:48:31.637Z,2.33
2023-03-07T14:53:35.184Z,2.30
2023-03-07T14:58:52.661Z,2.15
2023-03-07T15:03:55.034Z,2.58
2023-03-07T15:08:59.095Z,2.67
2023-03-07T15:14:27.996Z,2.67
2023-03-07T15:19:47.675Z,3.15
2023-03-07T15:24:52.084Z,3.30
2023-03-07T15:29:55.465Z,2.00
2023-03-07T15:35:15.680Z,3.08
2023-03-07T15:40:20.744Z,3.03
2023-03-07T15:45:38.295Z,3.28
2023-03-07T15:50:40.423Z,4.10
2023-03-07T15:55:59.703Z,3.80
2023-03-07T16:01:28.211Z,3.63
2023-03-07T16:06:30.169Z,3.38
2023-03-07T16:11:33.459Z,3.60
2023-03-07T16:16:35.522Z,2.83
2023-03-07T16:21:37.611Z,3.05
2023-03-07T16:26:42.401Z,3.60
2023-03-07T16:31:45.158Z,3.53
2023-03-07T16:36:50.249Z,3.97
2023-03-07T16:41:52.327Z,4.70
2023-03-07T16:47:08.758Z,6.13
2023-03-07T16:52:14.666Z,4.13
2023-03-07T16:57:17.382Z,4.60
2023-03-07T17:02:21.196Z,4.22
2023-03-07T17:07:24.140Z,4.00
2023-03-07T17:12:26.284Z,4.75
2023-03-07T17:17:35.882Z,5.88
2023-03-07T17:22:37.944Z,5.13
2023-03-07T17:27:44.837Z,9.95
2023-03-07T17:32:47.489Z,6.85
2023-03-07T17:37:51.776Z,5.30
2023-03-07T17:42:55.167Z,5.97
2023-03-07T17:47:57.306Z,6.95
2023-03-07T17:52:59.318Z,6.30
2023-03-07T17:58:01.351Z,4.72
2023-03-07T18:03:03.623Z,3.70
2023-03-07T18:08:05.797Z,3.72
2023-03-07T18:13:09.716Z,7.95
2023-03-07T18:18:12.875Z,8.77
2023-03-07T18:23:16.092Z,6.35
2023-03-07T18:28:18.114Z,5.22
2023-03-07T18:33:20.132Z,5.70
2023-03-07T18:38:22.340Z,5.00
2023-03-07T18:43:24.387Z,4.30
2023-03-07T18:48:26.502Z,5.00
2023-03-07T18:53:28.853Z,5.75
2023-03-07T18:58:31.223Z,6.60
2023-03-07T19:03:33.255Z,5.65
2023-03-07T19:08:35.345Z,6.10
2023-03-07T19:13:38.059Z,5.88
2023-03-07T19:18:40.423Z,7.68
2023-03-07T19:23:42.783Z,6.20
2023-03-07T19:28:50.126Z,5.85
2023-03-07T19:33:52.552Z,5.45
2023-03-07T19:38:56.501Z,6.07
2023-03-07T19:44:00.122Z,6.30
2023-03-07T19:49:02.163Z,5.85
2023-03-07T19:54:05.187Z,10.07
2023-03-07T19:59:08.444Z,8.15
2023-03-07T20:04:14.811Z,6.55
2023-03-07T20:09:16.931Z,6.68
2023-03-07T20:14:18.966Z,7.32
2023-03-07T20:19:20.968Z,8.32
2023-03-07T20:24:22.995Z,8.35
2023-03-07T20:29:25.373Z,7.78
2023-03-07T20:34:28.207Z,7.65
2023-03-07T20:39:30.262Z,8.85
2023-03-07T20:44:32.408Z,11.80
2023-03-07T20:49:34.478Z,8.95
2023-03-07T20:54:36.687Z,8.55
2023-03-07T20:59:38.690Z,9.30
2023-03-07T21:04:40.743Z,9.02
2023-03-07T21:09:42.728Z,8.73
2023-03-07T21:14:44.781Z,8.98
2023-03-07T21:19:46.753Z,9.38
2023-03-07T21:24:48.760Z,8.85
2023-03-07T21:29:50.796Z,9.52
2023-03-07T21:34:52.787Z,9.95
2023-03-07T21:39:54.900Z,13.65
2023-03-07T21:44:56.965Z,9.85
2023-03-07T21:49:58.975Z,10.40
2023-03-07T21:55:00.969Z,10.23
2023-03-07T22:00:06.734Z,9.38
2023-03-07T22:05:09.116Z,9.68
2023-03-07T22:10:11.665Z,9.90
2023-03-07T22:15:14.256Z,11.27
2023-03-07T22:20:16.472Z,10.48
2023-03-07T22:25:18.607Z,10.88
2023-03-07T22:30:20.887Z,13.95
2023-03-07T22:35:23.038Z,13.77
2023-03-07T22:40:25.314Z,11.80
2023-03-07T22:45:27.448Z,11.18
2023-03-07T22:50:30.881Z,12.40
2023-03-07T22:55:32.989Z,12.95
2023-03-07T23:00:35.014Z,13.10
2023-03-07T23:05:37.213Z,13.02
2023-03-07T23:10:39.350Z,13.18
2023-03-07T23:15:43.116Z,14.95
2023-03-07T23:20:45.237Z,11.55
2023-03-07T23:25:47.589Z,12.35
2023-03-07T23:30:49.599Z,7.97
2023-03-07T23:35:51.854Z,7.60
2023-03-07T23:40:53.890Z,7.32
2023-03-07T23:45:55.994Z,7.80
2023-03-07T23:50:58.052Z,6.28
2023-03-07T23:56:00.122Z,6.70
